createdAt,value
2018-06-24T00:00:07.470Z,57.30
2018-06-24T00:02:36.376Z,57.20
2018-06-24T00:05:05.297Z,57.20
2018-06-24T00:07:34.191Z,56.60
2018-06-24T00:10:03.068Z,56.50
2018-06-24T00:12:31.996Z,57.70
2018-06-24T00:15:00.868Z,59.20
2018-06-24T00:17:29.724Z,60.60
2018-06-24T00:19:58.588Z,60.20
2018-06-24T00:22:27.507Z,60.60
2018-06-24T00:24:56.734Z,61.40
2018-06-24T00:27:25.630Z,60.40
2018-06-24T00:29:54.501Z,60.40
2018-06-24T00:32:23.388Z,60.70
2018-06-24T00:34:52.234Z,60.40
2018-06-24T00:37:21.110Z,64.00
2018-06-24T00:44:46.909Z,63.90
2018-06-24T00:47:15.759Z,63.70
2018-06-24T00:49:44.705Z,65.00
2018-06-24T00:52:13.587Z,63.80
2018-06-24T00:54:42.444Z,63.30
2018-06-24T00:57:11.343Z,64.30
2018-06-24T00:59:51.349Z,65.50
2018-06-24T01:02:20.249Z,66.20
2018-06-24T01:09:46.133Z,64.70
2018-06-24T01:12:15.004Z,63.60
2018-06-24T01:14:43.956Z,63.80
2018-06-24T01:17:12.823Z,65.30
2018-06-24T01:19:41.733Z,65.70
2018-06-24T01:22:10.649Z,65.60
2018-06-24T01:27:08.012Z,65.00
2018-06-24T01:29:36.897Z,64.90
2018-06-24T01:32:05.849Z,65.70
2018-06-24T01:34:34.711Z,65.80
2018-06-24T01:37:03.600Z,65.80
2018-06-24T01:39:32.444Z,66.40
2018-06-24T01:42:01.343Z,67.90
2018-06-24T01:44:30.256Z,67.40
2018-06-24T01:49:27.737Z,67.10
2018-06-24T01:51:56.619Z,66.00
2018-06-24T01:56:54.105Z,65.80
2018-06-24T01:59:23.008Z,65.50
2018-06-24T02:01:52.047Z,67.20
2018-06-24T02:04:20.927Z,67.80
2018-06-24T02:06:49.920Z,68.10
2018-06-24T02:09:18.785Z,67.30
2018-06-24T02:11:47.667Z,67.00
2018-06-24T02:14:16.616Z,67.40
2018-06-24T02:16:45.528Z,67.20
2018-06-24T02:21:42.934Z,67.50
2018-06-24T02:24:11.810Z,67.10
2018-06-24T02:26:40.691Z,67.70
2018-06-24T02:29:09.594Z,66.80
2018-06-24T02:31:38.491Z,67.60
2018-06-24T02:34:07.417Z,66.80
2018-06-24T02:36:36.359Z,66.40
2018-06-24T02:39:07.846Z,67.00
2018-06-24T02:41:36.695Z,67.80
2018-06-24T02:44:05.685Z,67.70
2018-06-24T02:46:34.599Z,68.40
2018-06-24T02:49:03.488Z,68.20
2018-06-24T02:51:32.393Z,67.10
2018-06-24T02:54:01.310Z,66.60
2018-06-24T02:56:30.275Z,66.70
2018-06-24T02:58:59.179Z,67.00
2018-06-24T03:01:28.113Z,66.60
2018-06-24T03:03:57.099Z,67.10
2018-06-24T03:06:26.035Z,67.00
2018-06-24T03:08:54.933Z,66.70
2018-06-24T03:11:23.860Z,67.00
2018-06-24T03:18:49.733Z,68.10
2018-06-24T03:21:18.679Z,67.80
2018-06-24T03:23:47.549Z,67.70
2018-06-24T03:26:16.441Z,68.00
2018-06-24T03:28:45.363Z,68.50
2018-06-24T03:33:42.955Z,67.60
2018-06-24T03:36:11.818Z,67.60
2018-06-24T03:38:40.722Z,68.10
2018-06-24T03:43:38.119Z,68.90
2018-06-24T03:46:07.076Z,70.20
2018-06-24T03:48:36.022Z,69.70
2018-06-24T03:51:04.919Z,71.10
2018-06-24T03:53:33.841Z,71.00
2018-06-24T03:56:02.782Z,71.30
2018-06-24T03:58:31.707Z,71.40
2018-06-24T04:01:00.645Z,70.60
2018-06-24T04:03:29.592Z,70.30
2018-06-24T04:05:58.477Z,70.70
2018-06-24T04:08:27.339Z,70.20
2018-06-24T04:10:56.252Z,70.00
2018-06-24T04:13:25.161Z,69.80
2018-06-24T04:15:59.171Z,69.40
2018-06-24T04:18:32.300Z,69.10
2018-06-24T04:21:01.266Z,68.90
2018-06-24T04:25:58.956Z,70.00
2018-06-24T04:30:56.625Z,71.00
2018-06-24T04:35:54.332Z,72.70
2018-06-24T04:38:23.226Z,72.20
2018-06-24T04:40:52.164Z,71.90
2018-06-24T04:43:21.086Z,71.80
2018-06-24T04:45:50.080Z,72.70
2018-06-24T04:48:18.961Z,71.60
2018-06-24T04:53:16.336Z,72.70
2018-06-24T04:58:13.799Z,71.30
2018-06-24T05:00:42.684Z,71.80
2018-06-24T05:08:08.646Z,72.40
2018-06-24T05:13:06.589Z,74.30
2018-06-24T05:15:35.492Z,74.00
2018-06-24T05:18:04.433Z,73.30
2018-06-24T05:20:33.342Z,73.70
2018-06-24T05:23:02.249Z,72.90
2018-06-24T05:25:31.232Z,73.10
2018-06-24T05:28:00.218Z,74.10
2018-06-24T05:30:29.148Z,74.30
2018-06-24T05:32:58.108Z,73.80
2018-06-24T05:35:27.114Z,74.20
2018-06-24T05:37:55.996Z,73.30
2018-06-24T05:40:24.968Z,73.00
2018-06-24T05:42:53.857Z,72.50
2018-06-24T05:45:22.797Z,72.20
2018-06-24T05:47:51.693Z,72.00
2018-06-24T05:50:20.657Z,71.60
2018-06-24T05:52:49.561Z,71.10
2018-06-24T05:55:18.452Z,71.40
2018-06-24T05:57:47.397Z,71.80
2018-06-24T06:00:16.332Z,71.20
2018-06-24T06:02:45.295Z,70.30
2018-06-24T06:05:14.325Z,70.60
2018-06-24T06:07:43.199Z,69.60
2018-06-24T06:10:12.152Z,69.70
2018-06-24T06:12:41.033Z,69.40
2018-06-24T06:15:10.016Z,69.50
2018-06-24T06:17:39.019Z,70.00
2018-06-24T06:20:08.665Z,70.40
2018-06-24T06:22:37.569Z,69.60
2018-06-24T06:25:06.913Z,69.10
2018-06-24T06:27:35.837Z,68.90
2018-06-24T06:30:05.219Z,68.60
2018-06-24T06:32:34.213Z,69.30
2018-06-24T06:35:03.327Z,69.40
2018-06-24T06:37:32.269Z,70.20
2018-06-24T06:42:29.719Z,68.90
2018-06-24T06:44:58.766Z,69.50
2018-06-24T06:47:27.683Z,66.30
2018-06-24T06:49:56.595Z,67.00
2018-06-24T06:52:25.514Z,65.90
2018-06-24T06:54:54.428Z,65.90
2018-06-24T06:57:23.301Z,64.90
2018-06-24T06:59:52.279Z,65.30
2018-06-24T07:04:49.769Z,65.90
2018-06-24T07:07:18.725Z,64.70
2018-06-24T07:09:47.679Z,63.90
2018-06-24T07:12:16.587Z,63.00
2018-06-24T07:14:45.573Z,63.60
2018-06-24T07:17:14.508Z,63.20
2018-06-24T07:22:12.012Z,61.10
2018-06-24T07:24:40.945Z,60.50
2018-06-24T07:27:09.876Z,60.00
2018-06-24T07:29:38.738Z,59.80
2018-06-24T07:32:07.737Z,61.40
2018-06-24T07:37:05.129Z,59.50
2018-06-24T07:39:34.016Z,59.20
2018-06-24T07:42:02.892Z,58.30
2018-06-24T07:44:31.842Z,58.40
2018-06-24T07:47:00.818Z,59.00
2018-06-24T07:49:29.769Z,57.60
2018-06-24T07:54:27.224Z,58.50
2018-06-24T07:56:56.180Z,57.80
2018-06-24T07:59:25.136Z,56.70
2018-06-24T08:01:54.096Z,54.50
2018-06-24T08:04:22.950Z,55.20
2018-06-24T08:06:56.968Z,55.20
2018-06-24T08:09:25.964Z,54.90
2018-06-24T08:11:54.951Z,55.50
2018-06-24T08:14:23.894Z,55.50
2018-06-24T08:16:52.808Z,54.10
2018-06-24T08:19:21.745Z,55.10
2018-06-24T08:21:50.675Z,56.30
2018-06-24T08:24:19.641Z,56.40
2018-06-24T08:26:48.568Z,55.20
2018-06-24T08:29:17.490Z,55.70
2018-06-24T08:31:46.434Z,56.20
2018-06-24T08:34:15.347Z,55.70
2018-06-24T08:36:44.275Z,54.00
2018-06-24T08:39:13.212Z,53.60
2018-06-24T08:41:42.195Z,53.80
2018-06-24T08:44:11.173Z,52.10
2018-06-24T08:49:09.162Z,53.20
2018-06-24T08:54:06.680Z,52.00
2018-06-24T08:56:35.678Z,53.10
2018-06-24T08:59:04.694Z,51.40
2018-06-24T09:01:33.621Z,51.60
2018-06-24T09:04:03.597Z,51.90
2018-06-24T09:06:34.643Z,51.90
2018-06-24T09:09:05.292Z,50.10
2018-06-24T09:11:35.988Z,47.80
2018-06-24T09:14:05.116Z,48.00
2018-06-24T09:16:35.242Z,48.60
2018-06-24T09:21:37.897Z,47.00
2018-06-24T09:24:15.971Z,46.80
2018-06-24T09:26:54.101Z,48.00
2018-06-24T09:29:23.321Z,49.20
2018-06-24T09:31:52.294Z,47.90
2018-06-24T09:34:21.401Z,46.90
2018-06-24T09:36:50.447Z,48.10
2018-06-24T09:39:19.490Z,47.80
2018-06-24T09:41:48.467Z,47.50
2018-06-24T09:44:17.443Z,48.40
2018-06-24T09:46:46.501Z,47.10
2018-06-24T09:49:15.484Z,48.00
2018-06-24T09:51:44.766Z,45.20
2018-06-24T09:54:14.465Z,46.20
2018-06-24T09:56:43.356Z,41.50
2018-06-24T10:01:41.167Z,42.50
2018-06-24T10:06:38.611Z,44.10
2018-06-24T10:09:10.864Z,45.70
2018-06-24T10:11:39.900Z,44.20
2018-06-24T10:16:37.365Z,46.20
2018-06-24T10:19:06.396Z,46.10
2018-06-24T10:21:35.329Z,45.10
2018-06-24T10:24:04.241Z,43.20
2018-06-24T10:26:33.201Z,45.30
2018-06-24T10:29:02.103Z,45.00
2018-06-24T10:34:00.629Z,45.50
2018-06-24T10:38:58.092Z,47.40
2018-06-24T10:43:55.522Z,46.00
2018-06-24T10:46:24.506Z,47.20
2018-06-24T10:48:53.571Z,48.00
2018-06-24T10:51:22.500Z,45.70
2018-06-24T10:53:51.421Z,45.10
2018-06-24T10:56:20.360Z,47.90
2018-06-24T10:58:49.353Z,47.70
2018-06-24T11:01:18.344Z,46.10
2018-06-24T11:03:47.394Z,45.90
2018-06-24T11:06:16.331Z,46.20
2018-06-24T11:08:45.237Z,45.90
2018-06-24T11:11:14.151Z,47.10
2018-06-24T11:13:43.146Z,45.50
2018-06-24T11:16:12.091Z,46.80
2018-06-24T11:18:41.067Z,47.20
2018-06-24T11:21:10.010Z,48.80
2018-06-24T11:23:38.918Z,48.30
2018-06-24T11:26:07.890Z,47.10
2018-06-24T11:28:36.843Z,47.10
2018-06-24T11:31:05.784Z,47.90
2018-06-24T11:33:34.772Z,48.70
2018-06-24T11:36:03.645Z,49.40
2018-06-24T11:38:32.580Z,48.00
2018-06-24T11:41:01.489Z,47.90
2018-06-24T11:43:30.526Z,48.20
2018-06-24T11:45:59.417Z,45.80
2018-06-24T11:48:28.357Z,46.30
2018-06-24T11:53:25.876Z,49.00
2018-06-24T11:55:55.019Z,47.80
2018-06-24T12:00:53.638Z,47.20
2018-06-24T12:03:22.804Z,45.70
2018-06-24T12:05:51.711Z,44.70
2018-06-24T12:10:49.096Z,46.70
2018-06-24T12:13:18.024Z,48.20
2018-06-24T12:15:47.016Z,46.10
2018-06-24T12:18:15.992Z,47.50
2018-06-24T12:20:44.910Z,48.40
2018-06-24T12:23:13.910Z,47.30
2018-06-24T12:25:42.932Z,46.80
2018-06-24T12:33:09.011Z,48.70
2018-06-24T12:35:37.958Z,49.20
2018-06-24T12:38:08.174Z,48.40
2018-06-24T12:40:37.057Z,47.80
2018-06-24T12:43:06.001Z,48.50
2018-06-24T12:45:34.953Z,51.00
2018-06-24T12:48:03.853Z,48.70
2018-06-24T12:50:32.761Z,48.00
2018-06-24T12:53:01.615Z,47.90
2018-06-24T12:55:30.538Z,48.30
2018-06-24T12:57:59.470Z,49.10
2018-06-24T13:00:28.880Z,48.80
2018-06-24T13:02:57.376Z,48.60
2018-06-24T13:05:26.389Z,48.10
2018-06-24T13:07:55.299Z,48.30
2018-06-24T13:10:24.346Z,48.30
2018-06-24T13:12:53.305Z,49.70
2018-06-24T13:15:22.290Z,48.50
2018-06-24T13:17:51.284Z,49.00
2018-06-24T13:20:20.226Z,50.10
2018-06-24T13:22:49.202Z,49.60
2018-06-24T13:25:18.203Z,49.50
2018-06-24T13:27:47.134Z,49.40
2018-06-24T13:30:16.212Z,48.30
2018-06-24T13:35:13.642Z,49.70
2018-06-24T13:37:42.500Z,51.40
2018-06-24T13:40:11.506Z,50.90
2018-06-24T13:42:40.433Z,50.30
2018-06-24T13:45:10.011Z,49.60
2018-06-24T13:47:39.037Z,47.90
2018-06-24T13:50:08.115Z,48.10
2018-06-24T13:52:37.110Z,48.40
2018-06-24T13:55:06.139Z,48.60
2018-06-24T14:00:03.823Z,49.30
2018-06-24T14:05:01.817Z,47.60
2018-06-24T14:07:30.840Z,46.80
2018-06-24T14:09:59.715Z,48.40
2018-06-24T14:12:28.654Z,46.50
2018-06-24T14:14:57.549Z,45.20
2018-06-24T14:17:26.451Z,45.40
2018-06-24T14:19:55.439Z,45.90
2018-06-24T14:22:24.408Z,47.30
2018-06-24T14:24:53.364Z,46.40
2018-06-24T14:27:22.282Z,46.60
2018-06-24T14:29:51.208Z,45.50
2018-06-24T14:32:20.191Z,46.10
2018-06-24T14:34:49.079Z,46.70
2018-06-24T14:37:18.023Z,46.60
2018-06-24T14:39:47.400Z,44.70
2018-06-24T14:42:16.336Z,45.10
2018-06-24T14:44:45.276Z,44.90
2018-06-24T14:49:42.860Z,44.90
2018-06-24T14:52:11.834Z,46.10
2018-06-24T14:57:09.432Z,46.40
2018-06-24T14:59:38.339Z,45.20
2018-06-24T15:02:07.406Z,45.60
2018-06-24T15:04:36.325Z,46.30
2018-06-24T15:07:05.309Z,45.40
2018-06-24T15:09:34.206Z,44.80
2018-06-24T15:12:03.183Z,46.80
2018-06-24T15:19:30.085Z,43.90
2018-06-24T15:22:05.496Z,44.70
2018-06-24T15:24:34.436Z,44.60
2018-06-24T15:27:03.382Z,46.00
2018-06-24T15:29:32.369Z,45.60
2018-06-24T15:32:01.275Z,45.70
2018-06-24T15:34:30.265Z,45.50
2018-06-24T15:36:59.310Z,46.50
2018-06-24T15:39:28.294Z,46.30
2018-06-24T15:41:57.244Z,46.10
2018-06-24T15:44:26.224Z,46.20
2018-06-24T15:46:55.147Z,43.80
2018-06-24T15:49:24.137Z,45.50
2018-06-24T15:51:53.062Z,45.20
2018-06-24T15:54:22.901Z,44.40
2018-06-24T15:56:51.830Z,43.50
2018-06-24T15:59:20.739Z,44.20
2018-06-24T16:01:49.737Z,46.10
2018-06-24T16:04:18.617Z,45.80
2018-06-24T16:06:47.520Z,47.40
2018-06-24T16:09:16.420Z,47.40
2018-06-24T16:11:45.378Z,47.80
2018-06-24T16:14:14.351Z,48.50
2018-06-24T16:16:43.289Z,48.80
2018-06-24T16:19:12.236Z,48.70
2018-06-24T16:21:41.279Z,48.00
2018-06-24T16:24:10.248Z,49.30
2018-06-24T16:26:39.183Z,48.70
2018-06-24T16:31:36.695Z,48.10
2018-06-24T16:34:06.184Z,48.10
2018-06-24T16:36:35.163Z,49.60
2018-06-24T16:39:04.694Z,51.40
2018-06-24T16:41:33.614Z,51.00
2018-06-24T16:44:02.630Z,50.40
2018-06-24T16:51:28.691Z,50.10
2018-06-24T16:56:26.121Z,47.20
2018-06-24T16:58:55.120Z,46.90
2018-06-24T17:01:24.077Z,45.80
2018-06-24T17:03:53.309Z,46.50
2018-06-24T17:06:22.661Z,45.60
2018-06-24T17:08:51.620Z,45.50
2018-06-24T17:11:20.598Z,44.80
2018-06-24T17:13:49.583Z,45.60
2018-06-24T17:16:18.552Z,45.90
2018-06-24T17:18:47.538Z,45.60
2018-06-24T17:21:16.540Z,45.80
2018-06-24T17:23:45.535Z,45.40
2018-06-24T17:26:14.533Z,46.20
2018-06-24T17:28:43.496Z,46.50
2018-06-24T17:31:12.469Z,47.70
2018-06-24T17:36:09.910Z,46.80
2018-06-24T17:38:38.883Z,47.60
2018-06-24T17:41:07.885Z,49.00
2018-06-24T17:43:36.906Z,49.30
2018-06-24T17:46:05.886Z,49.10
2018-06-24T17:48:34.889Z,50.90
2018-06-24T17:51:03.919Z,51.70
2018-06-24T17:53:32.958Z,52.80
2018-06-24T17:56:01.982Z,53.00
2018-06-24T18:00:59.504Z,54.30
2018-06-24T18:03:28.455Z,54.00
2018-06-24T18:05:57.446Z,54.60
2018-06-24T18:08:26.344Z,54.60
2018-06-24T18:10:55.326Z,54.40
2018-06-24T18:13:24.348Z,54.70
2018-06-24T18:15:53.374Z,55.10
2018-06-24T18:18:22.358Z,55.90
2018-06-24T18:20:51.337Z,55.30
2018-06-24T18:23:20.295Z,56.10
2018-06-24T18:25:49.305Z,56.90
2018-06-24T18:28:18.298Z,56.80
2018-06-24T18:30:47.223Z,55.70
2018-06-24T18:33:16.235Z,55.00
2018-06-24T18:35:45.137Z,55.60
2018-06-24T18:43:11.120Z,54.20
2018-06-24T18:45:40.137Z,55.00
2018-06-24T18:48:09.107Z,55.20
2018-06-24T18:50:38.139Z,55.10
2018-06-24T18:53:07.081Z,55.10
2018-06-24T18:55:36.441Z,55.80
2018-06-24T18:58:05.963Z,55.90
2018-06-24T19:03:03.597Z,55.70
2018-06-24T19:05:32.444Z,55.40
2018-06-24T19:08:01.401Z,55.80
2018-06-24T19:10:30.338Z,55.40
2018-06-24T19:12:59.295Z,55.40
2018-06-24T19:15:28.339Z,56.40
2018-06-24T19:17:57.341Z,57.40
2018-06-24T19:20:26.422Z,57.50
2018-06-24T19:25:24.016Z,61.00
2018-06-24T19:27:53.691Z,63.50
2018-06-24T19:30:22.736Z,63.10
2018-06-24T19:32:52.481Z,64.80
2018-06-24T19:37:50.421Z,64.80
2018-06-24T19:40:20.037Z,65.30
2018-06-24T19:42:49.100Z,67.50
2018-06-24T19:45:18.092Z,68.10
2018-06-24T19:47:47.124Z,70.00
2018-06-24T19:50:16.225Z,70.60
2018-06-24T19:52:45.404Z,71.90
2018-06-24T19:55:14.439Z,77.30
2018-06-24T19:57:44.752Z,77.80
2018-06-24T20:02:42.244Z,76.50
2018-06-24T20:05:11.477Z,76.40
2018-06-24T20:07:40.517Z,76.90
2018-06-24T20:12:38.066Z,75.50
2018-06-24T20:15:07.047Z,76.20
2018-06-24T20:17:36.009Z,75.60
2018-06-24T20:20:05.149Z,76.20
2018-06-24T20:22:34.169Z,76.30
2018-06-24T20:27:31.651Z,76.50
2018-06-24T20:30:00.768Z,77.10
2018-06-24T20:32:29.761Z,77.00
2018-06-24T20:34:58.716Z,76.90
2018-06-24T20:39:56.202Z,77.10
2018-06-24T20:42:25.153Z,76.80
2018-06-24T20:44:54.093Z,78.60
2018-06-24T20:47:23.079Z,78.90
2018-06-24T20:49:52.087Z,79.40
2018-06-24T20:52:21.004Z,78.70
2018-06-24T20:54:49.941Z,78.90
2018-06-24T20:59:47.381Z,78.70
2018-06-24T21:02:16.315Z,77.90
2018-06-24T21:04:45.229Z,77.70
2018-06-24T21:07:14.197Z,77.90
2018-06-24T21:09:43.113Z,77.90
2018-06-24T21:12:12.054Z,79.00
2018-06-24T21:14:40.977Z,77.50
2018-06-24T21:17:09.908Z,79.20
2018-06-24T21:19:38.857Z,79.40
2018-06-24T21:22:07.834Z,79.40
2018-06-24T21:27:08.920Z,79.70
2018-06-24T21:29:38.414Z,79.90
2018-06-24T21:32:07.434Z,80.40
2018-06-24T21:34:36.417Z,79.60
2018-06-24T21:37:05.337Z,79.80
2018-06-24T21:39:34.306Z,79.40
2018-06-24T21:42:03.244Z,79.00
2018-06-24T21:44:32.216Z,77.70
2018-06-24T21:47:01.142Z,77.00
2018-06-24T21:49:30.092Z,78.10
2018-06-24T21:51:59.040Z,77.90
2018-06-24T21:54:28.054Z,77.90
2018-06-24T21:56:56.993Z,78.70
2018-06-24T22:02:01.079Z,78.10
2018-06-24T22:04:30.037Z,78.00
2018-06-24T22:06:58.974Z,76.60
2018-06-24T22:09:27.920Z,76.50
2018-06-24T22:11:56.897Z,76.90
2018-06-24T22:14:25.841Z,77.70
2018-06-24T22:16:54.870Z,77.10
2018-06-24T22:21:52.432Z,77.80
2018-06-24T22:24:21.364Z,77.40
2018-06-24T22:26:50.307Z,78.50
2018-06-24T22:29:19.228Z,78.40
2018-06-24T22:34:16.627Z,79.90
2018-06-24T22:36:45.656Z,80.10
2018-06-24T22:39:14.614Z,81.10
2018-06-24T22:41:43.525Z,81.00
2018-06-24T22:44:12.515Z,81.20
2018-06-24T22:46:41.501Z,82.00
2018-06-24T22:49:10.404Z,81.70
2018-06-24T22:51:39.387Z,81.30
2018-06-24T22:54:08.353Z,82.30
2018-06-24T22:56:37.312Z,82.20
2018-06-24T23:04:08.584Z,83.60
2018-06-24T23:06:37.520Z,83.30
2018-06-24T23:09:08.199Z,83.60
2018-06-24T23:11:37.416Z,82.70
2018-06-24T23:16:34.817Z,82.30
2018-06-24T23:19:04.986Z,84.50
2018-06-24T23:21:33.950Z,84.00
2018-06-24T23:24:02.845Z,84.30
2018-06-24T23:26:32.358Z,85.30
2018-06-24T23:29:01.361Z,84.80
2018-06-24T23:31:30.258Z,84.00
2018-06-24T23:33:59.201Z,83.60
2018-06-24T23:36:29.358Z,84.10
2018-06-24T23:38:58.381Z,82.70
2018-06-24T23:43:55.868Z,82.50
2018-06-24T23:46:24.818Z,82.30
2018-06-24T23:48:53.792Z,81.80
2018-06-24T23:51:22.739Z,81.30
2018-06-24T23:53:51.724Z,81.20
2018-06-24T23:58:49.118Z,81.40
